createdAt,value
2019-05-22T00:00:04.087Z,11.50
2019-05-22T00:02:39.045Z,11.50
2019-05-22T00:05:30.030Z,11.40
2019-05-22T00:08:01.284Z,11.50
2019-05-22T00:10:33.008Z,11.50
2019-05-22T00:13:04.196Z,11.50
2019-05-22T00:15:38.385Z,11.50
2019-05-22T00:18:07.746Z,11.40
2019-05-22T00:20:39.289Z,11.40
2019-05-22T00:23:10.889Z,11.40
2019-05-22T00:25:40.925Z,11.40
2019-05-22T00:28:10.986Z,11.40
2019-05-22T00:30:45.230Z,11.30
2019-05-22T00:33:15.964Z,11.30
2019-05-22T00:35:46.109Z,11.30
2019-05-22T00:38:16.062Z,11.40
2019-05-22T00:41:04.809Z,11.40
2019-05-22T00:43:42.225Z,11.40
2019-05-22T00:46:16.964Z,11.40
2019-05-22T00:48:47.894Z,11.30
2019-05-22T00:51:27.300Z,11.30
2019-05-22T00:54:21.489Z,11.30
2019-05-22T00:57:23.975Z,11.20
2019-05-22T00:59:55.846Z,11.40
2019-05-22T01:02:28.718Z,11.20
2019-05-22T01:04:59.970Z,11.30
2019-05-22T01:07:38.449Z,11.40
2019-05-22T01:10:11.978Z,11.40
2019-05-22T01:12:44.219Z,11.40
2019-05-22T01:15:19.205Z,11.30
2019-05-22T01:17:50.699Z,11.30
2019-05-22T01:20:24.541Z,11.40
2019-05-22T01:22:57.715Z,11.20
2019-05-22T01:25:29.065Z,11.30
2019-05-22T01:28:00.500Z,11.40
2019-05-22T01:31:07.925Z,11.20
2019-05-22T01:33:45.100Z,11.40
2019-05-22T01:36:27.417Z,11.30
2019-05-22T01:39:03.391Z,11.30
2019-05-22T01:41:36.466Z,11.20
2019-05-22T01:44:09.164Z,11.30
2019-05-22T01:46:41.909Z,11.30
2019-05-22T01:49:14.709Z,11.30
2019-05-22T01:51:44.722Z,11.40
2019-05-22T01:54:15.977Z,11.20
2019-05-22T01:56:45.721Z,11.30
2019-05-22T01:59:15.234Z,11.30
2019-05-22T02:01:47.761Z,11.30
2019-05-22T02:04:18.914Z,11.30
2019-05-22T02:06:48.760Z,11.20
2019-05-22T02:09:30.890Z,11.30
2019-05-22T02:12:28.135Z,11.30
2019-05-22T02:14:58.104Z,11.40
2019-05-22T02:17:33.212Z,11.30
2019-05-22T02:20:04.473Z,11.30
2019-05-22T02:22:35.500Z,11.30
2019-05-22T02:25:05.339Z,11.30
2019-05-22T02:27:35.566Z,11.30
2019-05-22T02:30:08.158Z,11.30
2019-05-22T02:32:39.097Z,11.10
2019-05-22T02:35:10.335Z,11.20
2019-05-22T02:37:41.933Z,11.20
2019-05-22T02:40:19.599Z,11.10
2019-05-22T02:42:50.741Z,11.10
2019-05-22T02:45:21.555Z,11.00
2019-05-22T02:47:53.244Z,11.10
2019-05-22T02:50:23.944Z,11.10
2019-05-22T02:52:54.149Z,11.20
2019-05-22T02:55:23.883Z,11.20
2019-05-22T02:57:53.504Z,11.20
2019-05-22T03:00:25.071Z,11.10
2019-05-22T03:02:55.796Z,11.20
2019-05-22T03:05:25.708Z,11.20
2019-05-22T03:07:55.788Z,11.20
2019-05-22T03:10:26.766Z,11.20
2019-05-22T03:12:58.487Z,11.20
2019-05-22T03:15:28.373Z,11.30
2019-05-22T03:18:03.498Z,11.30
2019-05-22T03:20:34.033Z,11.30
2019-05-22T03:23:36.426Z,11.20
2019-05-22T03:26:09.628Z,11.30
2019-05-22T03:28:41.214Z,11.20
2019-05-22T03:31:12.744Z,11.20
2019-05-22T03:33:43.304Z,11.20
2019-05-22T03:36:21.055Z,11.30
2019-05-22T03:38:53.032Z,11.20
2019-05-22T03:41:23.203Z,11.10
2019-05-22T03:43:53.407Z,11.10
2019-05-22T03:46:34.491Z,11.10
2019-05-22T03:49:05.795Z,11.10
2019-05-22T03:51:36.210Z,11.30
2019-05-22T03:54:07.745Z,11.20
2019-05-22T03:56:41.268Z,11.10
2019-05-22T03:59:11.322Z,11.00
2019-05-22T04:01:41.016Z,11.10
2019-05-22T04:04:12.360Z,11.20
2019-05-22T04:06:42.814Z,10.90
2019-05-22T04:09:20.421Z,10.90
2019-05-22T04:11:51.038Z,11.00
2019-05-22T04:14:24.008Z,11.10
2019-05-22T04:16:54.451Z,11.10
2019-05-22T04:19:24.296Z,11.10
2019-05-22T04:21:54.208Z,11.30
2019-05-22T04:24:24.424Z,11.20
2019-05-22T04:26:54.469Z,11.00
2019-05-22T04:29:26.501Z,10.90
2019-05-22T04:32:06.857Z,10.90
2019-05-22T04:34:37.000Z,11.00
2019-05-22T04:37:08.227Z,10.90
2019-05-22T04:39:41.529Z,11.10
2019-05-22T04:42:13.654Z,11.10
2019-05-22T04:45:04.482Z,11.00
2019-05-22T04:47:36.737Z,11.00
2019-05-22T04:50:08.284Z,11.00
2019-05-22T04:52:38.484Z,11.10
2019-05-22T04:55:11.373Z,11.10
2019-05-22T04:57:40.983Z,11.10
2019-05-22T05:00:12.906Z,11.10
2019-05-22T05:02:43.027Z,10.80
2019-05-22T05:05:13.324Z,10.90
2019-05-22T05:07:43.989Z,10.90
2019-05-22T05:10:13.780Z,11.10
2019-05-22T05:12:43.484Z,11.10
2019-05-22T05:15:13.088Z,11.10
2019-05-22T05:17:42.561Z,11.10
2019-05-22T05:20:22.185Z,11.10
2019-05-22T05:22:45.570Z,11.10
2019-05-22T05:25:16.383Z,11.10
2019-05-22T05:27:47.666Z,11.00
2019-05-22T05:30:20.143Z,11.00
2019-05-22T05:32:50.499Z,11.00
2019-05-22T05:35:20.891Z,10.90
2019-05-22T05:37:51.583Z,11.10
2019-05-22T05:40:34.761Z,10.90
2019-05-22T05:43:06.286Z,10.80
2019-05-22T05:45:36.648Z,11.00
2019-05-22T05:48:10.212Z,10.90
2019-05-22T05:50:42.810Z,11.00
2019-05-22T05:53:19.125Z,11.10
2019-05-22T05:56:21.986Z,11.00
2019-05-22T05:58:51.649Z,10.90
2019-05-22T06:01:44.233Z,10.90
2019-05-22T06:04:15.959Z,11.00
2019-05-22T06:07:15.911Z,11.00
2019-05-22T06:09:46.265Z,11.00
2019-05-22T06:12:15.909Z,10.90
2019-05-22T06:14:47.031Z,10.90
2019-05-22T06:17:57.358Z,11.00
2019-05-22T06:20:28.474Z,10.90
2019-05-22T06:23:46.231Z,11.00
2019-05-22T06:26:38.354Z,11.10
2019-05-22T06:29:08.087Z,11.00
2019-05-22T06:32:20.999Z,11.00
2019-05-22T06:34:52.430Z,11.10
2019-05-22T06:37:34.684Z,11.20
2019-05-22T06:40:06.174Z,11.20
2019-05-22T06:42:37.528Z,11.10
2019-05-22T06:45:07.346Z,11.20
2019-05-22T06:47:37.313Z,11.20
2019-05-22T06:50:07.861Z,11.10
2019-05-22T06:52:37.415Z,11.10
2019-05-22T06:55:07.747Z,11.20
2019-05-22T06:57:37.274Z,11.10
2019-05-22T07:00:20.616Z,11.10
2019-05-22T07:02:50.401Z,11.10
2019-05-22T07:05:20.347Z,11.10
2019-05-22T07:07:51.938Z,11.20
2019-05-22T07:10:22.541Z,11.10
2019-05-22T07:12:52.109Z,11.20
2019-05-22T07:15:31.156Z,11.20
2019-05-22T07:18:03.101Z,11.20
2019-05-22T07:20:35.714Z,11.10
2019-05-22T07:23:06.978Z,11.20
2019-05-22T07:25:37.567Z,11.10
2019-05-22T07:28:07.994Z,11.10
2019-05-22T07:30:38.072Z,11.10
2019-05-22T07:33:08.300Z,11.10
2019-05-22T07:35:50.335Z,11.20
2019-05-22T07:38:09.498Z,11.20
2019-05-22T07:40:39.707Z,11.30
2019-05-22T07:43:09.364Z,11.20
2019-05-22T07:45:39.743Z,11.20
2019-05-22T07:48:11.202Z,11.20
2019-05-22T07:50:47.999Z,11.30
2019-05-22T07:53:17.156Z,11.30
2019-05-22T07:55:48.956Z,11.30
2019-05-22T07:58:19.080Z,11.30
2019-05-22T08:01:09.618Z,11.30
2019-05-22T08:03:40.703Z,11.30
2019-05-22T08:06:11.585Z,11.30
2019-05-22T08:08:43.660Z,11.40
2019-05-22T08:11:14.565Z,11.40
2019-05-22T08:13:44.968Z,11.40
2019-05-22T08:16:15.866Z,11.50
2019-05-22T08:18:46.008Z,11.60
2019-05-22T08:21:16.002Z,11.60
2019-05-22T08:23:46.764Z,11.90
2019-05-22T08:26:19.065Z,11.90
2019-05-22T08:28:49.363Z,11.90
2019-05-22T08:31:22.742Z,11.80
2019-05-22T08:33:52.919Z,11.90
2019-05-22T08:36:22.686Z,11.80
2019-05-22T08:38:53.029Z,11.90
2019-05-22T08:41:28.134Z,11.90
2019-05-22T08:44:15.333Z,12.00
2019-05-22T08:46:31.610Z,11.90
2019-05-22T08:49:02.550Z,11.80
2019-05-22T08:51:32.169Z,11.80
2019-05-22T08:54:05.661Z,11.80
2019-05-22T08:56:37.717Z,11.90
2019-05-22T08:59:18.942Z,12.00
2019-05-22T09:01:45.010Z,12.00
2019-05-22T09:04:19.584Z,12.00
2019-05-22T09:06:53.026Z,12.00
2019-05-22T09:09:23.532Z,12.00
2019-05-22T09:11:53.034Z,12.00
2019-05-22T09:14:22.909Z,12.00
2019-05-22T09:16:53.123Z,12.10
2019-05-22T09:19:22.785Z,12.10
2019-05-22T09:21:52.709Z,12.00
2019-05-22T09:24:23.732Z,12.00
2019-05-22T09:26:53.898Z,12.00
2019-05-22T09:29:23.531Z,12.10
2019-05-22T09:31:53.115Z,12.00
2019-05-22T09:34:22.878Z,12.00
2019-05-22T09:36:52.321Z,12.00
2019-05-22T09:39:22.249Z,12.00
2019-05-22T09:41:51.771Z,12.00
2019-05-22T09:44:21.343Z,12.00
2019-05-22T09:46:51.142Z,12.00
2019-05-22T09:49:23.911Z,12.00
2019-05-22T09:51:53.030Z,12.10
2019-05-22T09:54:23.441Z,12.20
2019-05-22T09:56:53.151Z,12.20
2019-05-22T09:59:23.085Z,12.30
2019-05-22T10:01:53.879Z,12.30
2019-05-22T10:04:24.800Z,12.40
2019-05-22T10:06:54.837Z,12.40
2019-05-22T10:09:25.390Z,12.40
2019-05-22T10:11:55.915Z,12.50
2019-05-22T10:14:25.909Z,12.50
2019-05-22T10:16:55.712Z,12.50
2019-05-22T10:19:25.859Z,12.60
2019-05-22T10:21:56.507Z,12.60
2019-05-22T10:24:26.812Z,12.60
2019-05-22T10:26:56.482Z,12.60
2019-05-22T10:29:26.647Z,12.60
2019-05-22T10:31:56.319Z,12.60
2019-05-22T10:34:26.169Z,12.70
2019-05-22T10:36:56.023Z,12.70
2019-05-22T10:39:26.472Z,12.70
2019-05-22T10:41:56.228Z,12.80
2019-05-22T10:44:26.066Z,12.90
2019-05-22T10:46:57.158Z,12.90
2019-05-22T10:49:26.925Z,12.90
2019-05-22T10:51:56.579Z,13.10
2019-05-22T10:54:26.310Z,13.20
2019-05-22T10:56:56.035Z,13.20
2019-05-22T10:59:26.868Z,13.20
2019-05-22T11:01:56.451Z,13.20
2019-05-22T11:04:27.449Z,13.10
2019-05-22T11:06:57.733Z,13.10
2019-05-22T11:09:28.131Z,13.20
2019-05-22T11:11:57.594Z,13.20
2019-05-22T11:14:27.920Z,13.30
2019-05-22T11:17:01.337Z,13.20
2019-05-22T11:19:30.109Z,13.20
2019-05-22T11:21:59.642Z,13.10
2019-05-22T11:24:30.387Z,13.10
2019-05-22T11:27:00.270Z,13.10
2019-05-22T11:29:29.795Z,13.10
2019-05-22T11:31:59.702Z,13.20
2019-05-22T11:34:29.716Z,13.30
2019-05-22T11:37:01.086Z,13.30
2019-05-22T11:39:39.410Z,13.20
2019-05-22T11:42:04.013Z,13.20
2019-05-22T11:44:33.867Z,13.20
2019-05-22T11:47:03.492Z,13.20
2019-05-22T11:49:34.348Z,13.30
2019-05-22T11:52:08.352Z,13.40
2019-05-22T11:54:39.577Z,13.30
2019-05-22T11:57:10.816Z,13.30
2019-05-22T11:59:41.068Z,13.30
2019-05-22T12:02:13.326Z,13.30
2019-05-22T12:04:47.809Z,13.30
2019-05-22T12:07:15.185Z,13.40
2019-05-22T12:09:46.626Z,13.50
2019-05-22T12:12:16.353Z,13.30
2019-05-22T12:14:46.446Z,13.30
2019-05-22T12:17:16.303Z,13.30
2019-05-22T12:19:46.986Z,13.30
2019-05-22T12:22:20.070Z,13.30
2019-05-22T12:24:49.716Z,13.30
2019-05-22T12:27:19.217Z,13.30
2019-05-22T12:29:51.185Z,13.30
2019-05-22T12:32:20.894Z,13.30
2019-05-22T12:34:50.948Z,13.40
2019-05-22T12:37:21.003Z,13.40
2019-05-22T12:39:50.658Z,13.40
2019-05-22T12:42:20.861Z,13.50
2019-05-22T12:44:51.007Z,13.50
2019-05-22T12:47:21.998Z,13.60
2019-05-22T12:49:52.661Z,13.70
2019-05-22T12:52:24.517Z,13.60
2019-05-22T12:54:54.414Z,13.60
2019-05-22T12:57:24.774Z,13.60
2019-05-22T12:59:55.529Z,13.70
2019-05-22T13:02:26.509Z,13.80
2019-05-22T13:04:57.171Z,13.80
2019-05-22T13:07:27.682Z,13.80
2019-05-22T13:09:57.487Z,14.00
2019-05-22T13:12:27.148Z,14.10
2019-05-22T13:15:08.960Z,14.10
2019-05-22T13:17:28.845Z,14.00
2019-05-22T13:19:59.059Z,14.10
2019-05-22T13:22:30.107Z,14.00
2019-05-22T13:24:59.727Z,14.00
2019-05-22T13:27:32.435Z,14.00
2019-05-22T13:30:05.269Z,14.00
2019-05-22T13:32:36.751Z,14.00
2019-05-22T13:35:08.525Z,13.90
2019-05-22T13:37:39.714Z,13.80
2019-05-22T13:40:26.608Z,13.80
2019-05-22T13:42:42.337Z,13.80
2019-05-22T13:45:27.622Z,13.90
2019-05-22T13:47:45.031Z,14.00
2019-05-22T13:50:17.767Z,14.10
2019-05-22T13:52:49.267Z,14.20
2019-05-22T13:55:21.567Z,14.30
2019-05-22T13:57:51.792Z,14.20
2019-05-22T14:00:23.397Z,14.10
2019-05-22T14:02:53.240Z,14.00
2019-05-22T14:05:25.078Z,14.00
2019-05-22T14:07:56.123Z,13.90
2019-05-22T14:10:27.257Z,14.00
2019-05-22T14:12:57.491Z,14.10
2019-05-22T14:15:47.305Z,14.10
2019-05-22T14:17:59.588Z,14.20
2019-05-22T14:20:29.793Z,14.20
2019-05-22T14:22:59.615Z,14.20
2019-05-22T14:25:30.099Z,14.10
2019-05-22T14:27:59.851Z,14.10
2019-05-22T14:30:31.147Z,14.10
2019-05-22T14:33:04.940Z,14.10
2019-05-22T14:35:47.636Z,14.20
2019-05-22T14:38:07.279Z,14.20
2019-05-22T14:40:38.933Z,14.20
2019-05-22T14:43:09.234Z,14.10
2019-05-22T14:45:39.050Z,14.20
2019-05-22T14:48:09.797Z,14.20
2019-05-22T14:50:39.795Z,14.20
2019-05-22T14:53:10.812Z,14.30
2019-05-22T14:55:41.078Z,14.30
2019-05-22T14:58:12.384Z,14.30
2019-05-22T15:00:43.256Z,14.30
2019-05-22T15:03:13.261Z,14.30
2019-05-22T15:05:43.589Z,14.30
2019-05-22T15:08:13.671Z,14.30
2019-05-22T15:10:44.724Z,14.40
2019-05-22T15:13:14.778Z,14.40
2019-05-22T15:15:45.023Z,14.50
2019-05-22T15:18:15.096Z,14.50
2019-05-22T15:21:01.107Z,14.50
2019-05-22T15:23:32.463Z,14.40
2019-05-22T15:26:02.671Z,14.30
2019-05-22T15:28:33.094Z,14.20
2019-05-22T15:31:03.975Z,14.30
2019-05-22T15:33:34.841Z,14.30
2019-05-22T15:36:06.940Z,14.30
2019-05-22T15:38:40.639Z,14.30
2019-05-22T15:41:11.559Z,14.00
2019-05-22T15:43:44.490Z,14.10
2019-05-22T15:46:16.859Z,14.10
2019-05-22T15:48:48.881Z,14.20
2019-05-22T15:51:22.391Z,14.20
2019-05-22T15:53:55.286Z,14.20
2019-05-22T15:56:25.541Z,14.20
2019-05-22T15:58:56.630Z,14.20
2019-05-22T16:01:28.418Z,14.20
2019-05-22T16:03:59.862Z,14.10
2019-05-22T16:06:30.670Z,14.20
2019-05-22T16:09:01.580Z,14.20
2019-05-22T16:11:31.516Z,14.20
2019-05-22T16:14:03.437Z,14.10
2019-05-22T16:16:36.086Z,14.10
2019-05-22T16:19:09.118Z,14.20
2019-05-22T16:21:42.287Z,14.20
2019-05-22T16:24:12.953Z,14.10
2019-05-22T16:26:43.262Z,14.10
2019-05-22T16:29:13.555Z,14.10
2019-05-22T16:31:45.600Z,14.20
2019-05-22T16:34:16.750Z,14.30
2019-05-22T16:36:47.526Z,13.90
2019-05-22T16:39:18.411Z,14.10
2019-05-22T16:41:48.124Z,14.20
2019-05-22T16:44:19.361Z,14.00
2019-05-22T16:46:49.796Z,13.90
2019-05-22T16:49:19.855Z,14.00
2019-05-22T16:51:51.190Z,14.00
2019-05-22T16:54:21.385Z,13.90
2019-05-22T16:56:52.031Z,14.00
2019-05-22T16:59:21.983Z,14.00
2019-05-22T17:01:59.387Z,13.90
2019-05-22T17:04:23.768Z,13.90
2019-05-22T17:06:53.754Z,13.90
2019-05-22T17:09:24.682Z,14.00
2019-05-22T17:11:54.815Z,13.90
2019-05-22T17:14:26.207Z,13.80
2019-05-22T17:16:56.041Z,13.80
2019-05-22T17:19:27.825Z,13.70
2019-05-22T17:21:57.282Z,13.80
2019-05-22T17:24:28.616Z,13.80
2019-05-22T17:26:58.310Z,13.70
2019-05-22T17:29:28.631Z,13.70
2019-05-22T17:31:58.285Z,13.70
2019-05-22T17:34:37.828Z,13.70
2019-05-22T17:37:11.837Z,13.90
2019-05-22T17:39:44.223Z,13.90
2019-05-22T17:42:19.096Z,13.90
2019-05-22T17:44:51.631Z,13.90
2019-05-22T17:47:23.773Z,13.90
2019-05-22T17:49:54.495Z,13.80
2019-05-22T17:52:26.241Z,13.70
2019-05-22T17:54:56.594Z,13.70
2019-05-22T17:57:26.544Z,13.70
2019-05-22T17:59:57.214Z,13.70
2019-05-22T18:02:36.379Z,13.70
2019-05-22T18:05:08.083Z,13.70
2019-05-22T18:07:38.661Z,13.70
2019-05-22T18:10:12.532Z,13.50
2019-05-22T18:12:42.312Z,13.60
2019-05-22T18:15:14.596Z,13.70
2019-05-22T18:17:45.114Z,13.80
2019-05-22T18:20:15.888Z,13.80
2019-05-22T18:22:45.665Z,13.70
2019-05-22T18:25:16.245Z,13.80
2019-05-22T18:27:46.041Z,13.90
2019-05-22T18:30:15.825Z,13.80
2019-05-22T18:32:45.477Z,13.80
2019-05-22T18:35:16.052Z,13.80
2019-05-22T18:37:45.810Z,13.80
2019-05-22T18:40:17.051Z,13.80
2019-05-22T18:42:47.324Z,13.80
2019-05-22T18:45:17.692Z,13.80
2019-05-22T18:47:49.251Z,13.80
2019-05-22T18:50:19.257Z,13.80
2019-05-22T18:52:50.819Z,13.80
2019-05-22T18:55:21.104Z,13.80
2019-05-22T18:57:50.779Z,13.70
2019-05-22T19:00:22.560Z,13.70
2019-05-22T19:02:52.318Z,13.70
2019-05-22T19:05:24.873Z,13.70
2019-05-22T19:07:54.535Z,13.70
2019-05-22T19:10:24.938Z,13.70
2019-05-22T19:12:54.756Z,13.70
2019-05-22T19:15:25.738Z,13.70
2019-05-22T19:17:55.851Z,13.70
2019-05-22T19:20:27.049Z,13.70
2019-05-22T19:23:00.696Z,13.70
2019-05-22T19:25:28.343Z,13.60
2019-05-22T19:27:58.269Z,13.60
2019-05-22T19:30:28.414Z,13.60
2019-05-22T19:32:58.087Z,13.60
2019-05-22T19:35:27.707Z,13.60
2019-05-22T19:37:58.263Z,13.50
2019-05-22T19:40:27.956Z,13.60
2019-05-22T19:42:58.789Z,13.50
2019-05-22T19:45:30.937Z,13.50
2019-05-22T19:48:01.972Z,13.50
2019-05-22T19:50:33.211Z,13.50
2019-05-22T19:53:18.188Z,13.50
2019-05-22T19:55:34.659Z,13.50
2019-05-22T19:58:04.440Z,13.40
2019-05-22T20:00:34.567Z,13.50
2019-05-22T20:03:04.745Z,13.50
2019-05-22T20:05:35.275Z,13.40
2019-05-22T20:08:06.060Z,13.40
2019-05-22T20:10:35.809Z,13.40
2019-05-22T20:13:08.119Z,13.40
2019-05-22T20:15:38.715Z,13.40
2019-05-22T20:18:08.661Z,13.30
2019-05-22T20:20:39.179Z,13.30
2019-05-22T20:23:09.812Z,13.30
2019-05-22T20:25:39.666Z,13.30
2019-05-22T20:28:11.288Z,13.30
2019-05-22T20:30:41.115Z,13.30
2019-05-22T20:35:39.432Z,13.30
2019-05-22T20:38:09.161Z,13.20
2019-05-22T20:40:39.309Z,13.20
2019-05-22T20:43:10.723Z,13.20
2019-05-22T20:45:42.856Z,13.20
2019-05-22T20:48:17.352Z,13.10
2019-05-22T20:50:47.466Z,13.10
2019-05-22T20:53:19.011Z,13.10
2019-05-22T20:55:50.386Z,13.10
2019-05-22T20:58:21.012Z,13.10
2019-05-22T21:00:52.506Z,13.10
2019-05-22T21:03:23.120Z,13.00
2019-05-22T21:05:54.332Z,13.00
2019-05-22T21:08:26.659Z,13.00
2019-05-22T21:10:57.559Z,13.00
2019-05-22T21:13:27.191Z,13.00
2019-05-22T21:15:57.117Z,13.00
2019-05-22T21:18:43.655Z,12.90
2019-05-22T21:21:14.099Z,12.90
2019-05-22T21:23:43.964Z,12.90
2019-05-22T21:26:15.076Z,12.90
2019-05-22T21:28:46.610Z,12.80
2019-05-22T21:31:17.645Z,12.80
2019-05-22T21:33:47.874Z,12.80
2019-05-22T21:36:20.052Z,12.80
2019-05-22T21:38:50.646Z,12.80
2019-05-22T21:41:22.119Z,12.70
2019-05-22T21:43:52.824Z,12.70
2019-05-22T21:46:23.649Z,12.70
2019-05-22T21:48:56.207Z,12.70
2019-05-22T21:51:25.886Z,12.70
2019-05-22T21:53:55.797Z,12.70
2019-05-22T21:56:26.075Z,12.60
2019-05-22T21:58:56.027Z,12.60
2019-05-22T22:01:34.173Z,12.60
2019-05-22T22:04:23.825Z,12.60
2019-05-22T22:06:55.330Z,12.60
2019-05-22T22:09:26.429Z,12.50
2019-05-22T22:11:56.434Z,12.50
2019-05-22T22:14:26.753Z,12.50
2019-05-22T22:16:56.461Z,12.50
2019-05-22T22:19:28.165Z,12.50
2019-05-22T22:21:58.099Z,12.50
2019-05-22T22:24:28.368Z,12.40
2019-05-22T22:26:58.762Z,12.40
2019-05-22T22:29:29.395Z,12.40
2019-05-22T22:32:00.387Z,12.40
2019-05-22T22:34:46.462Z,12.40
2019-05-22T22:37:17.559Z,12.30
2019-05-22T22:39:52.002Z,12.30
2019-05-22T22:42:26.650Z,12.30
2019-05-22T22:44:59.670Z,12.30
2019-05-22T22:47:35.964Z,12.30
2019-05-22T22:50:07.601Z,12.20
2019-05-22T22:52:39.987Z,12.20
2019-05-22T22:55:11.823Z,12.20
2019-05-22T22:57:42.281Z,12.20
2019-05-22T23:00:16.637Z,12.20
2019-05-22T23:02:48.275Z,12.20
2019-05-22T23:05:18.716Z,12.10
2019-05-22T23:07:49.539Z,12.10
2019-05-22T23:10:21.064Z,12.10
2019-05-22T23:12:54.411Z,12.10
2019-05-22T23:15:26.705Z,12.00
2019-05-22T23:17:56.815Z,12.00
2019-05-22T23:20:26.202Z,12.00
2019-05-22T23:22:54.100Z,12.00
2019-05-22T23:25:24.186Z,12.00
2019-05-22T23:27:55.851Z,12.00
2019-05-22T23:30:25.674Z,11.90
2019-05-22T23:32:57.427Z,11.90
2019-05-22T23:35:27.643Z,11.90
2019-05-22T23:37:59.240Z,11.90
2019-05-22T23:40:32.054Z,11.90
2019-05-22T23:43:03.675Z,11.90
2019-05-22T23:45:33.857Z,11.80
2019-05-22T23:48:12.072Z,11.80
2019-05-22T23:50:43.167Z,11.80
2019-05-22T23:53:13.742Z,11.80
2019-05-22T23:55:45.746Z,11.80
2019-05-22T23:58:17.052Z,11.70
